Garfield, Ohio
Current Conditions -  °F | °C
As of 7:37 AM on Monday 26 Jan 2015 (Local Time) from KBKL Reporting Station
Light Snow Light Snow  
Wind Chill:   Ceiling: 3200
Heat Index: 20°   Visibility: 2.5mi
Dew Point: 16°   Wind: 12mph
Humidity: 85%   Direction: 50°NE
Pressure: 29.83"   Gusts: NA
Location:  41.4062°N, 81.6149°W
Report Text: KBKL 261237Z 05010KT 2 1/2SM -SN BR OVC032 M07/M09 A2983 RMK AO2 P0000 T10671089
Loading
Personal Weather Stations






























Interactive Weather Map New forecast layout! Learn more

10-Day Weather Forecast

Advertisements
Track Severe Weather on mobile